createdAt,value
2018-04-08T00:02:04.316Z,100363.05
2018-04-08T00:04:30.172Z,100355.14
2018-04-08T00:06:56.023Z,100360.21
2018-04-08T00:09:21.869Z,100355.87
2018-04-08T00:11:47.768Z,100354.17
2018-04-08T00:14:13.626Z,100359.28
2018-04-08T00:16:39.468Z,100352.33
2018-04-08T00:19:05.321Z,100354.50
2018-04-08T00:21:31.147Z,100353.44
2018-04-08T00:23:57.058Z,100359.88
2018-04-08T00:26:22.896Z,100348.36
2018-04-08T00:28:48.747Z,100352.33
2018-04-08T00:31:14.587Z,100347.40
2018-04-08T00:33:40.442Z,100352.59
2018-04-08T00:36:06.294Z,100350.36
2018-04-08T00:38:32.152Z,100355.00
2018-04-08T00:40:58.028Z,100347.91
2018-04-08T00:43:23.862Z,100351.10
2018-04-08T00:45:49.811Z,100354.25
2018-04-08T00:48:15.637Z,100355.14
2018-04-08T00:50:41.495Z,100352.98
2018-04-08T00:53:07.381Z,100354.12
2018-04-08T00:55:33.223Z,100357.44
2018-04-08T00:57:59.092Z,100353.35
2018-04-08T01:00:24.936Z,100354.20
2018-04-08T01:02:50.782Z,100351.47
2018-04-08T01:05:16.641Z,100353.02
2018-04-08T01:07:42.500Z,100358.63
2018-04-08T01:10:08.348Z,100349.33
2018-04-08T01:12:34.218Z,100359.09
2018-04-08T01:15:00.085Z,100350.77
2018-04-08T01:17:25.943Z,100357.03
2018-04-08T01:19:51.794Z,100352.31
2018-04-08T01:22:17.652Z,100354.36
2018-04-08T01:24:43.499Z,100355.84
2018-04-08T01:27:09.319Z,100353.09
2018-04-08T01:29:35.184Z,100342.36
2018-04-08T01:32:01.026Z,100344.65
2018-04-08T01:34:26.860Z,100342.97
2018-04-08T01:36:52.746Z,100345.19
2018-04-08T01:39:18.625Z,100349.33
2018-04-08T01:41:44.504Z,100345.67
2018-04-08T01:44:10.387Z,100345.41
2018-04-08T01:46:36.270Z,100348.70
2018-04-08T01:49:02.147Z,100345.84
2018-04-08T01:51:27.989Z,100345.38
2018-04-08T01:53:53.847Z,100335.25
2018-04-08T01:56:19.666Z,100335.63
2018-04-08T01:58:45.514Z,100338.03
2018-04-08T02:01:11.372Z,100329.11
2018-04-08T02:03:37.239Z,100333.99
2018-04-08T02:06:03.097Z,100333.06
2018-04-08T02:08:28.957Z,100327.74
2018-04-08T02:10:54.849Z,100327.94
2018-04-08T02:13:20.711Z,100332.97
2018-04-08T02:15:46.600Z,100324.81
2018-04-08T02:18:12.443Z,100323.85
2018-04-08T02:20:38.280Z,100323.04
2018-04-08T02:23:04.149Z,100316.54
2018-04-08T02:25:30.002Z,100322.23
2018-04-08T02:27:55.865Z,100318.78
2018-04-08T02:30:21.717Z,100320.58
2018-04-08T02:32:47.573Z,100319.65
2018-04-08T02:35:13.431Z,100317.06
2018-04-08T02:37:39.301Z,100316.72
2018-04-08T02:40:05.149Z,100313.18
2018-04-08T02:42:31.005Z,100314.29
2018-04-08T02:44:56.869Z,100313.88
2018-04-08T02:47:22.708Z,100314.12
2018-04-08T02:49:48.572Z,100316.23
2018-04-08T02:52:14.420Z,100313.57
2018-04-08T02:54:40.339Z,100320.39
2018-04-08T02:57:06.212Z,100322.06
2018-04-08T02:59:32.081Z,100315.19
2018-04-08T03:01:57.923Z,100316.28
2018-04-08T03:04:23.782Z,100317.97
2018-04-08T03:06:49.630Z,100308.94
2018-04-08T03:09:16.013Z,100309.92
2018-04-08T03:11:41.876Z,100312.34
2018-04-08T03:14:07.721Z,100307.17
2018-04-08T03:16:33.591Z,100312.42
2018-04-08T03:18:59.425Z,100313.38
2018-04-08T03:21:25.292Z,100306.53
2018-04-08T03:23:51.133Z,100310.03
2018-04-08T03:26:16.984Z,100308.37
2018-04-08T03:28:42.842Z,100314.55
2018-04-08T03:31:08.712Z,100308.84
2018-04-08T03:33:34.579Z,100312.56
2018-04-08T03:36:00.416Z,100313.59
2018-04-08T03:38:26.295Z,100307.52
2018-04-08T03:40:52.120Z,100306.19
2018-04-08T03:43:17.946Z,100303.23
2018-04-08T03:45:43.802Z,100301.02
2018-04-08T03:48:09.664Z,100297.65
2018-04-08T03:50:35.526Z,100304.63
2018-04-08T03:53:01.405Z,100302.61
2018-04-08T03:55:27.241Z,100297.09
2018-04-08T03:57:53.090Z,100293.20
2018-04-08T04:00:18.992Z,100293.12
2018-04-08T04:02:44.851Z,100290.59
2018-04-08T04:05:10.729Z,100293.61
2018-04-08T04:07:36.605Z,100291.92
2018-04-08T04:10:02.443Z,100290.47
2018-04-08T04:12:28.318Z,100291.77
2018-04-08T04:14:54.209Z,100289.39
2018-04-08T04:17:20.086Z,100282.08
2018-04-08T04:19:58.171Z,100286.86
2018-04-08T04:25:49.050Z,100291.25
2018-04-08T04:28:14.925Z,100285.09
2018-04-08T04:30:40.818Z,100288.13
2018-04-08T04:33:06.636Z,100286.83
2018-04-08T04:35:32.503Z,100288.19
2018-04-08T04:37:58.349Z,100284.17
2018-04-08T04:40:24.199Z,100279.38
2018-04-08T04:42:50.039Z,100283.69
2018-04-08T04:45:15.896Z,100285.91
2018-04-08T04:47:41.760Z,100284.18
2018-04-08T04:50:07.598Z,100285.02
2018-04-08T04:52:33.469Z,100291.13
2018-04-08T04:54:59.317Z,100293.40
2018-04-08T04:57:25.160Z,100291.20
2018-04-08T04:59:51.015Z,100291.25
2018-04-08T05:02:16.902Z,100288.47
2018-04-08T05:04:42.759Z,100295.81
2018-04-08T05:07:08.628Z,100300.52
2018-04-08T05:09:34.500Z,100297.91
2018-04-08T05:12:00.332Z,100292.41
2018-04-08T05:14:26.179Z,100291.25
2018-04-08T05:16:52.066Z,100288.77
2018-04-08T05:19:17.905Z,100291.77
2018-04-08T05:21:43.740Z,100289.62
2018-04-08T05:24:09.584Z,100291.78
2018-04-08T05:26:35.452Z,100292.98
2018-04-08T05:29:01.314Z,100296.98
2018-04-08T05:31:27.186Z,100288.70
2018-04-08T05:33:53.039Z,100291.58
2018-04-08T05:36:18.867Z,100291.90
2018-04-08T05:38:44.720Z,100291.67
2018-04-08T05:41:10.560Z,100292.50
2018-04-08T05:43:36.422Z,100291.05
2018-04-08T05:46:02.337Z,100294.06
2018-04-08T05:48:28.190Z,100287.02
2018-04-08T05:50:54.029Z,100284.81
2018-04-08T05:53:19.871Z,100288.23
2018-04-08T05:55:45.740Z,100288.97
2018-04-08T05:58:11.576Z,100286.40
2018-04-08T06:00:37.433Z,100289.04
2018-04-08T06:03:03.284Z,100289.83
2018-04-08T06:05:29.157Z,100286.75
2018-04-08T06:07:55.007Z,100288.86
2018-04-08T06:10:20.848Z,100290.04
2018-04-08T06:12:46.701Z,100288.41
2018-04-08T06:15:12.519Z,100285.94
2018-04-08T06:17:38.441Z,100288.79
2018-04-08T06:20:04.322Z,100284.36
2018-04-08T06:22:30.162Z,100287.64
2018-04-08T06:24:56.109Z,100289.64
2018-04-08T06:27:21.908Z,100284.31
2018-04-08T06:29:47.790Z,100284.08
2018-04-08T06:32:13.623Z,100284.41
2018-04-08T06:34:39.507Z,100281.88
2018-04-08T06:37:05.381Z,100279.55
2018-04-08T06:39:31.245Z,100275.38
2018-04-08T06:41:57.102Z,100280.57
2018-04-08T06:44:22.988Z,100274.63
2018-04-08T06:46:48.857Z,100275.81
2018-04-08T06:49:14.721Z,100276.84
2018-04-08T06:51:40.605Z,100279.72
2018-04-08T06:54:06.435Z,100274.09
2018-04-08T06:56:32.280Z,100275.12
2018-04-08T06:58:58.131Z,100276.16
2018-04-08T07:01:24.063Z,100269.45
2018-04-08T07:03:49.929Z,100268.70
2018-04-08T07:06:15.807Z,100267.38
2018-04-08T07:08:41.665Z,100264.05
2018-04-08T07:11:07.530Z,100258.80
2018-04-08T07:13:33.417Z,100257.84
2018-04-08T07:15:59.281Z,100264.65
2018-04-08T07:18:25.260Z,100265.69
2018-04-08T07:20:51.064Z,100264.16
2018-04-08T07:23:16.943Z,100267.52
2018-04-08T07:25:42.817Z,100258.00
2018-04-08T07:28:08.671Z,100259.95
2018-04-08T07:30:34.517Z,100257.27
2018-04-08T07:33:00.406Z,100259.70
2018-04-08T07:35:26.281Z,100248.95
2018-04-08T07:37:52.139Z,100253.81
2018-04-08T07:40:17.990Z,100256.18
2018-04-08T07:42:43.868Z,100256.55
2018-04-08T07:45:09.727Z,100256.55
2018-04-08T07:47:35.577Z,100251.68
2018-04-08T07:50:01.493Z,100257.09
2018-04-08T07:52:27.350Z,100256.89
2018-04-08T07:54:53.189Z,100248.18
2018-04-08T07:57:19.229Z,100253.80
2018-04-08T07:59:45.079Z,100247.95
2018-04-08T08:02:10.911Z,100250.13
2018-04-08T08:04:36.771Z,100245.56
2018-04-08T08:07:02.744Z,100243.14
2018-04-08T08:09:28.920Z,100236.17
2018-04-08T08:11:54.931Z,100233.45
2018-04-08T08:14:20.817Z,100233.13
2018-04-08T08:16:46.660Z,100231.07
2018-04-08T08:19:12.507Z,100226.89
2018-04-08T08:21:38.382Z,100223.44
2018-04-08T08:24:04.286Z,100224.97
2018-04-08T08:26:30.152Z,100231.16
2018-04-08T08:28:56.016Z,100227.23
2018-04-08T08:31:21.917Z,100227.06
2018-04-08T08:33:47.776Z,100220.07
2018-04-08T08:36:13.619Z,100217.36
2018-04-08T08:38:39.462Z,100221.91
2018-04-08T08:41:05.336Z,100216.13
2018-04-08T08:43:31.235Z,100223.33
2018-04-08T08:45:57.097Z,100223.63
2018-04-08T08:48:22.984Z,100216.67
2018-04-08T08:50:48.860Z,100220.28
2018-04-08T08:53:14.747Z,100218.61
2018-04-08T08:55:40.580Z,100209.81
2018-04-08T08:58:06.441Z,100219.87
2018-04-08T09:00:32.276Z,100210.00
2018-04-08T09:02:58.184Z,100214.56
2018-04-08T09:05:24.049Z,100210.97
2018-04-08T09:07:49.900Z,100206.91
2018-04-08T09:10:15.765Z,100213.23
2018-04-08T09:12:41.627Z,100215.02
2018-04-08T09:15:07.549Z,100213.64
2018-04-08T09:17:33.448Z,100210.41
2018-04-08T09:20:13.164Z,100211.19
2018-04-08T09:25:38.593Z,100212.18
2018-04-08T09:28:04.447Z,100211.95
2018-04-08T09:30:30.352Z,100206.58
2018-04-08T09:32:56.725Z,100205.72
2018-04-08T09:35:22.593Z,100205.48
2018-04-08T09:37:48.456Z,100195.39
2018-04-08T09:40:14.281Z,100205.27
2018-04-08T09:42:40.177Z,100205.52
2018-04-08T09:45:06.014Z,100199.96
2018-04-08T09:47:31.864Z,100201.71
2018-04-08T09:49:57.703Z,100204.14
2018-04-08T09:52:23.582Z,100198.38
2018-04-08T09:54:49.462Z,100191.86
2018-04-08T09:57:15.377Z,100191.50
2018-04-08T09:59:41.241Z,100195.63
2018-04-08T10:02:22.856Z,100192.22
2018-04-08T10:04:48.703Z,100188.11
2018-04-08T10:07:14.582Z,100185.07
2018-04-08T10:09:40.458Z,100181.86
2018-04-08T10:12:06.312Z,100183.23
2018-04-08T10:14:32.189Z,100176.50
2018-04-08T10:16:58.048Z,100176.99
2018-04-08T10:19:23.966Z,100177.64
2018-04-08T10:21:49.824Z,100175.05
2018-04-08T10:24:15.704Z,100172.67
2018-04-08T10:26:41.553Z,100169.44
2018-04-08T10:29:07.448Z,100175.28
2018-04-08T10:31:33.333Z,100175.52
2018-04-08T10:33:59.173Z,100174.19
2018-04-08T10:36:25.038Z,100162.05
2018-04-08T10:38:50.861Z,100169.00
2018-04-08T10:41:16.737Z,100167.73
2018-04-08T10:43:42.602Z,100158.84
2018-04-08T10:46:08.596Z,100162.60
2018-04-08T10:48:34.486Z,100163.77
2018-04-08T10:51:00.367Z,100159.96
2018-04-08T10:53:41.162Z,100160.25
2018-04-08T10:56:07.018Z,100160.31
2018-04-08T10:58:32.885Z,100156.80
2018-04-08T11:00:58.729Z,100155.91
2018-04-08T11:03:24.610Z,100160.52
2018-04-08T11:05:50.875Z,100148.48
2018-04-08T11:08:16.751Z,100150.48
2018-04-08T11:13:35.448Z,100139.91
2018-04-08T11:16:01.365Z,100144.70
2018-04-08T11:18:27.231Z,100145.97
2018-04-08T11:20:53.097Z,100138.58
2018-04-08T11:23:18.944Z,100133.77
2018-04-08T11:25:44.894Z,100137.55
2018-04-08T11:28:10.885Z,100138.02
2018-04-08T11:30:36.847Z,100141.09
2018-04-08T11:33:02.726Z,100123.72
2018-04-08T11:35:28.605Z,100132.14
2018-04-08T11:37:54.452Z,100132.06
2018-04-08T11:40:20.351Z,100124.96
2018-04-08T11:42:46.182Z,100133.86
2018-04-08T11:45:12.010Z,100130.97
2018-04-08T11:47:37.890Z,100125.14
2018-04-08T11:50:03.781Z,100127.20
2018-04-08T11:52:29.633Z,100128.61
2018-04-08T11:54:55.504Z,100117.22
2018-04-08T11:57:21.365Z,100119.07
2018-04-08T11:59:47.256Z,100122.69
2018-04-08T12:02:13.125Z,100115.13
2018-04-08T12:04:38.973Z,100118.95
2018-04-08T12:07:04.891Z,100103.75
2018-04-08T12:09:30.761Z,100108.54
2018-04-08T12:11:56.624Z,100106.98
2018-04-08T12:14:22.480Z,100098.44
2018-04-08T12:16:48.374Z,100104.47
2018-04-08T12:19:14.233Z,100103.62
2018-04-08T12:21:40.108Z,100096.88
2018-04-08T12:24:05.974Z,100088.17
2018-04-08T12:26:44.898Z,100097.98
2018-04-08T12:29:10.751Z,100098.82
2018-04-08T12:31:36.648Z,100091.45
2018-04-08T12:34:02.546Z,100096.12
2018-04-08T12:36:28.436Z,100095.53
2018-04-08T12:38:54.307Z,100093.08
2018-04-08T12:41:20.180Z,100085.44
2018-04-08T12:43:46.038Z,100089.19
2018-04-08T12:46:11.896Z,100082.30
2018-04-08T12:48:37.769Z,100089.59
2018-04-08T12:51:03.613Z,100084.39
2018-04-08T12:53:29.506Z,100078.41
2018-04-08T12:55:55.364Z,100077.23
2018-04-08T12:58:21.246Z,100069.43
2018-04-08T13:00:47.098Z,100073.09
2018-04-08T13:03:12.966Z,100067.81
2018-04-08T13:05:38.815Z,100071.92
2018-04-08T13:08:04.647Z,100062.52
2018-04-08T13:10:30.502Z,100068.13
2018-04-08T13:12:56.352Z,100060.73
2018-04-08T13:15:22.254Z,100061.20
2018-04-08T13:17:48.127Z,100060.23
2018-04-08T13:20:14.008Z,100056.23
2018-04-08T13:22:39.875Z,100052.19
2018-04-08T13:25:05.793Z,100047.06
2018-04-08T13:27:31.640Z,100045.10
2018-04-08T13:29:57.484Z,100041.27
2018-04-08T13:32:23.358Z,100034.06
2018-04-08T13:34:49.332Z,100044.64
2018-04-08T13:37:15.184Z,100035.48
2018-04-08T13:39:41.043Z,100034.58
2018-04-08T13:42:06.907Z,100039.09
2018-04-08T13:44:32.770Z,100035.78
2018-04-08T13:46:58.632Z,100036.38
2018-04-08T13:49:24.478Z,100018.88
2018-04-08T13:51:50.379Z,100031.17
2018-04-08T13:54:16.220Z,100024.14
2018-04-08T13:56:42.069Z,100022.78
2018-04-08T13:59:07.937Z,100025.80
2018-04-08T14:01:33.804Z,100022.59
2018-04-08T14:03:59.659Z,100009.66
2018-04-08T14:06:25.552Z,100019.13
2018-04-08T14:08:51.602Z,100013.23
2018-04-08T14:11:17.509Z,100008.95
2018-04-08T14:13:43.398Z,100004.66
2018-04-08T14:16:09.255Z,100008.35
2018-04-08T14:18:35.139Z,100005.63
2018-04-08T14:21:00.997Z,100012.61
2018-04-08T14:23:26.896Z,100007.98
2018-04-08T14:25:52.863Z,100006.09
2018-04-08T14:28:18.716Z,100007.67
2018-04-08T14:30:44.596Z,100005.05
2018-04-08T14:33:10.483Z,100013.06
2018-04-08T14:35:36.384Z,100002.02
2018-04-08T14:38:02.256Z,100009.28
2018-04-08T14:40:28.162Z,100005.63
2018-04-08T14:42:54.178Z,100000.77
2018-04-08T14:45:20.060Z,100002.64
2018-04-08T14:47:46.000Z,99999.17
2018-04-08T14:50:11.858Z,99999.61
2018-04-08T14:52:37.766Z,99999.85
2018-04-08T14:55:03.714Z,99998.57
2018-04-08T14:57:29.568Z,99996.57
2018-04-08T14:59:55.449Z,100002.27
2018-04-08T15:02:21.320Z,99998.11
2018-04-08T15:04:47.194Z,99996.05
2018-04-08T15:07:13.098Z,99996.05
2018-04-08T15:09:38.997Z,99995.07
2018-04-08T15:12:04.868Z,99988.43
2018-04-08T15:14:30.726Z,99990.70
2018-04-08T15:16:56.624Z,99985.92
2018-04-08T15:19:22.496Z,99983.93
2018-04-08T15:21:48.402Z,99981.32
2018-04-08T15:24:14.254Z,99983.59
2018-04-08T15:26:40.141Z,99986.98
2018-04-08T15:29:06.011Z,99989.84
2018-04-08T15:31:31.867Z,99985.28
2018-04-08T15:33:57.779Z,99986.66
2018-04-08T15:36:23.628Z,99993.44
2018-04-08T15:38:49.520Z,99986.45
2018-04-08T15:41:15.409Z,99993.31
2018-04-08T15:43:41.300Z,99994.23
2018-04-08T15:46:07.190Z,99992.80
2018-04-08T15:48:33.085Z,99997.13
2018-04-08T15:50:58.940Z,99991.38
2018-04-08T15:53:24.801Z,99989.22
2018-04-08T15:55:50.675Z,100002.15
2018-04-08T15:58:16.561Z,99993.66
2018-04-08T16:00:42.432Z,99998.19
2018-04-08T16:03:08.351Z,100000.39
2018-04-08T16:05:34.208Z,100001.83
2018-04-08T16:08:00.074Z,99999.16
2018-04-08T16:10:25.931Z,99996.62
2018-04-08T16:12:51.799Z,99994.84
2018-04-08T16:15:17.686Z,100000.11
2018-04-08T16:17:43.654Z,99998.63
2018-04-08T16:20:09.612Z,100004.52
2018-04-08T16:22:35.423Z,100006.55
2018-04-08T16:25:01.268Z,100004.51
2018-04-08T16:27:27.140Z,100001.50
2018-04-08T16:29:52.991Z,100005.58
2018-04-08T16:32:18.871Z,100003.52
2018-04-08T16:34:44.770Z,100001.94
2018-04-08T16:37:10.633Z,100007.75
2018-04-08T16:39:36.482Z,100001.42
2018-04-08T16:42:02.363Z,100002.94
2018-04-08T16:44:28.302Z,99998.66
2018-04-08T16:46:54.169Z,99992.59
2018-04-08T16:49:20.070Z,99999.78
2018-04-08T16:51:45.958Z,100003.84
2018-04-08T17:00:01.612Z,100001.71
2018-04-08T17:02:27.714Z,99994.52
2018-04-08T17:04:53.611Z,99994.16
2018-04-08T17:07:19.510Z,99994.88
2018-04-08T17:09:45.439Z,100004.08
2018-04-08T17:12:11.306Z,99997.20
2018-04-08T17:14:37.150Z,99994.73
2018-04-08T17:17:03.005Z,99987.95
2018-04-08T17:19:29.488Z,99989.53
2018-04-08T17:21:55.399Z,99985.92
2018-04-08T17:24:21.314Z,99990.91
2018-04-08T17:26:47.225Z,99997.06
2018-04-08T17:29:13.172Z,100000.69
2018-04-08T17:31:39.090Z,100004.17
2018-04-08T17:34:05.014Z,100010.05
2018-04-08T17:36:30.926Z,100009.41
2018-04-08T17:38:56.934Z,100014.16
2018-04-08T17:41:22.914Z,100020.20
2018-04-08T17:43:48.868Z,100019.64
2018-04-08T17:46:15.601Z,100023.34
2018-04-08T17:48:41.518Z,100038.30
2018-04-08T17:51:07.428Z,100035.20
2018-04-08T17:53:33.275Z,100036.43
2018-04-08T17:55:59.173Z,100037.20
2018-04-08T17:58:25.096Z,100040.14
2018-04-08T18:00:51.041Z,100040.38
2018-04-08T18:03:16.902Z,100039.27
2018-04-08T18:05:42.775Z,100039.91
2018-04-08T18:08:08.665Z,100042.46
2018-04-08T18:10:34.571Z,100050.79
2018-04-08T18:13:00.465Z,100042.76
2018-04-08T18:15:26.371Z,100046.21
2018-04-08T18:17:52.566Z,100048.70
2018-04-08T18:20:18.444Z,100054.33
2018-04-08T18:22:45.240Z,100056.12
2018-04-08T18:25:12.017Z,100063.59
2018-04-08T18:27:38.682Z,100072.07
2018-04-08T18:30:04.584Z,100076.81
2018-04-08T18:32:30.473Z,100078.97
2018-04-08T18:34:56.371Z,100075.02
2018-04-08T18:37:22.253Z,100073.73
2018-04-08T18:39:48.161Z,100071.89
2018-04-08T18:42:14.077Z,100076.58
2018-04-08T18:44:40.039Z,100073.70
2018-04-08T18:47:05.896Z,100072.81
2018-04-08T18:49:31.796Z,100077.72
2018-04-08T18:51:58.284Z,100076.14
2018-04-08T18:54:24.889Z,100075.63
2018-04-08T18:56:50.767Z,100072.35
2018-04-08T18:59:16.713Z,100072.19
2018-04-08T19:01:42.634Z,100078.38
2018-04-08T19:04:09.174Z,100073.03
2018-04-08T19:06:35.077Z,100074.34
2018-04-08T19:09:01.063Z,100075.35
2018-04-08T19:11:27.336Z,100074.70
2018-04-08T19:13:53.280Z,100070.33
2018-04-08T19:16:19.357Z,100077.25
2018-04-08T19:18:45.409Z,100078.49
2018-04-08T19:21:12.153Z,100080.08
2018-04-08T19:23:39.117Z,100078.78
2018-04-08T19:26:05.120Z,100079.91
2018-04-08T19:28:31.040Z,100081.14
2018-04-08T19:30:57.072Z,100083.52
2018-04-08T19:33:23.005Z,100084.57
2018-04-08T19:35:48.892Z,100079.98
2018-04-08T19:38:15.782Z,100073.15
2018-04-08T19:40:41.619Z,100071.83
2018-04-08T19:43:07.606Z,100070.87
2018-04-08T19:45:33.496Z,100065.81
2018-04-08T19:47:59.381Z,100060.09
2018-04-08T19:50:25.305Z,100061.18
2018-04-08T19:52:51.184Z,100062.31
2018-04-08T19:55:17.450Z,100064.73
2018-04-08T19:57:43.310Z,100060.63
2018-04-08T20:00:09.272Z,100068.03
2018-04-08T20:02:35.487Z,100072.52
2018-04-08T20:05:01.416Z,100069.47
2018-04-08T20:07:27.314Z,100075.23
2018-04-08T20:09:53.175Z,100068.08
2018-04-08T20:12:19.399Z,100063.30
2018-04-08T20:14:45.346Z,100067.16
2018-04-08T20:17:11.222Z,100066.55
2018-04-08T20:19:37.079Z,100058.70
2018-04-08T20:22:03.053Z,100070.44
2018-04-08T20:24:28.929Z,100073.06
2018-04-08T20:26:54.856Z,100077.92
2018-04-08T20:29:20.821Z,100072.96
2018-04-08T20:31:46.735Z,100072.33
2018-04-08T20:34:12.640Z,100068.38
2018-04-08T20:36:38.523Z,100067.95
2018-04-08T20:39:05.460Z,100064.14
2018-04-08T20:41:32.138Z,100058.84
2018-04-08T20:43:58.169Z,100053.50
2018-04-08T20:46:24.054Z,100060.56
2018-04-08T20:48:50.342Z,100060.05
2018-04-08T20:51:16.221Z,100058.77
2018-04-08T20:53:42.125Z,100064.61
2018-04-08T20:56:08.038Z,100063.67
2018-04-08T20:58:33.901Z,100057.63
2018-04-08T21:00:59.769Z,100059.94
2018-04-08T21:03:25.676Z,100064.39
2018-04-08T21:05:51.584Z,100058.53
2018-04-08T21:08:17.452Z,100051.88
2018-04-08T21:10:43.340Z,100053.20
2018-04-08T21:13:09.248Z,100050.91
2018-04-08T21:15:35.160Z,100059.74
2018-04-08T21:18:01.015Z,100052.75
2018-04-08T21:23:20.135Z,100055.84
2018-04-08T21:25:46.064Z,100056.35
2018-04-08T21:28:11.951Z,100056.33
2018-04-08T21:30:37.848Z,100051.70
2018-04-08T21:33:03.692Z,100056.68
2018-04-08T21:35:29.544Z,100060.56
2018-04-08T21:37:55.406Z,100058.86
2018-04-08T21:40:21.273Z,100058.19
2018-04-08T21:42:47.157Z,100060.06
2018-04-08T21:45:13.029Z,100060.63
2018-04-08T21:47:38.912Z,100059.33
2018-04-08T21:50:04.770Z,100048.17
2018-04-08T21:52:30.646Z,100049.20
2018-04-08T21:54:56.578Z,100052.54
2018-04-08T21:57:22.445Z,100051.11
2018-04-08T21:59:48.287Z,100054.23
2018-04-08T22:02:14.148Z,100044.69
2018-04-08T22:04:39.987Z,100044.25
2018-04-08T22:07:05.852Z,100046.49
2018-04-08T22:09:31.729Z,100040.38
2018-04-08T22:11:57.766Z,100043.85
2018-04-08T22:14:23.607Z,100041.94
2018-04-08T22:16:49.477Z,100044.83
2018-04-08T22:19:15.334Z,100036.23
2018-04-08T22:21:41.209Z,100033.33
2018-04-08T22:24:07.049Z,100027.58
2018-04-08T22:26:32.932Z,100030.83
2018-04-08T22:29:13.728Z,100022.88
2018-04-08T22:31:39.610Z,100022.54
2018-04-08T22:34:05.462Z,100021.69
2018-04-08T22:36:31.344Z,100014.14
2018-04-08T22:38:57.207Z,100015.52
2018-04-08T22:41:23.080Z,100019.19
2018-04-08T22:43:48.940Z,100018.34
2018-04-08T22:46:14.799Z,100025.08
2018-04-08T22:48:40.677Z,100022.02
2018-04-08T22:51:06.531Z,100024.45
2018-04-08T22:53:32.438Z,100030.47
2018-04-08T22:55:58.314Z,100025.27
2018-04-08T22:58:24.176Z,100023.25
2018-04-08T23:00:50.041Z,100025.50
2018-04-08T23:03:15.905Z,100026.98
2018-04-08T23:05:41.781Z,100044.77
2018-04-08T23:08:07.630Z,100040.22
2018-04-08T23:10:33.498Z,100039.45
2018-04-08T23:12:59.370Z,100036.77
2018-04-08T23:15:25.236Z,100041.19
2018-04-08T23:17:51.117Z,100050.81
2018-04-08T23:20:16.984Z,100050.24
2018-04-08T23:22:42.839Z,100046.80
2018-04-08T23:25:08.691Z,100044.95
2018-04-08T23:27:34.550Z,100048.08
2018-04-08T23:30:00.388Z,100045.67
2018-04-08T23:32:26.264Z,100048.11
2018-04-08T23:34:52.125Z,100037.45
2018-04-08T23:37:17.976Z,100043.30
2018-04-08T23:39:43.818Z,100040.28
2018-04-08T23:42:09.664Z,100044.73
2018-04-08T23:44:35.533Z,100039.94
2018-04-08T23:47:01.392Z,100037.03
2018-04-08T23:49:27.272Z,100036.25
2018-04-08T23:51:53.135Z,100033.44
2018-04-08T23:54:18.997Z,100032.67
2018-04-08T23:56:44.845Z,100032.67
2018-04-08T23:59:10.683Z,100035.05
